Moody, Texas
Current Conditions -  °F | °C
As of 8:15 AM on Sunday 25 Jan 2015 (Local Time) from KTPL Reporting Station
Clear Clear  
Wind Chill: 42°   Ceiling: Unl
Heat Index: 46°   Visibility: 10mi
Dew Point: 34°   Wind: 9mph
Humidity: 62%   Direction: 290°WNW
Pressure: 30.02"   Gusts: NA
Location:  31.31°N, 97.36°W
Report Text: KTPL 251415Z AUTO 29008KT 10SM CLR 08/01 A3002 RMK AO1
Loading
Personal Weather Stations






























Interactive Weather Map New forecast layout! Learn more

10-Day Weather Forecast

Advertisements
Track Severe Weather on mobile